Rochester, Washington
Current Conditions -  °F | °C
As of 4:15 AM on Monday 22 Dec 2014 (Local Time) from KCLS Reporting Station
Broken Clouds Broken Clouds  
Wind Chill: 45°   Ceiling: 2700
Heat Index: 45°   Visibility: 9mi
Dew Point: 45°   Wind: 3mph
Humidity: 100%   Direction: 200°SSW
Pressure: 30.24"   Gusts: NA
Location:  46.82°N, 123.1°W
Report Text: KCLS 221215Z AUTO 20003KT 9SM BKN027 BKN033 07/07 A3024 RMK AO2
Loading
Personal Weather Stations






























Interactive Weather Map New forecast layout! Learn more

10-Day Weather Forecast

Advertisements
Track Severe Weather on mobile